sensor_id;sensor_type;location;lat;lon;timestamp;P1;durP1;ratioP1;P2;durP2;ratioP2
71814;SDS011;59659;41.520;23.794;2023-04-15T00:00:51;8.02;;;3.47;;
71814;SDS011;59659;41.520;23.794;2023-04-15T00:02:21;7.03;;;2.83;;
71814;SDS011;59659;41.520;23.794;2023-04-15T00:03:33;5.70;;;2.60;;
71814;SDS011;59659;41.520;23.794;2023-04-15T00:04:45;8.43;;;2.30;;
71814;SDS011;59659;41.520;23.794;2023-04-15T00:05:57;4.18;;;2.58;;
71814;SDS011;59659;41.520;23.794;2023-04-15T00:07:10;3.95;;;2.28;;
71814;SDS011;59659;41.520;23.794;2023-04-15T00:08:21;4.82;;;2.60;;
71814;SDS011;59659;41.520;23.794;2023-04-15T00:09:33;5.35;;;2.95;;
71814;SDS011;59659;41.520;23.794;2023-04-15T00:10:44;6.07;;;2.83;;
71814;SDS011;59659;41.520;23.794;2023-04-15T00:11:57;4.70;;;2.58;;
71814;SDS011;59659;41.520;23.794;2023-04-15T00:13:08;6.05;;;2.97;;
71814;SDS011;59659;41.520;23.794;2023-04-15T00:14:20;6.95;;;2.75;;
71814;SDS011;59659;41.520;23.794;2023-04-15T00:15:32;6.82;;;2.50;;
71814;SDS011;59659;41.520;23.794;2023-04-15T00:16:43;3.75;;;2.65;;
71814;SDS011;59659;41.520;23.794;2023-04-15T00:17:55;4.47;;;3.10;;
71814;SDS011;59659;41.520;23.794;2023-04-15T00:19:07;5.70;;;2.80;;
71814;SDS011;59659;41.520;23.794;2023-04-15T00:20:18;4.10;;;1.95;;
71814;SDS011;59659;41.520;23.794;2023-04-15T00:21:30;4.85;;;2.33;;
71814;SDS011;59659;41.520;23.794;2023-04-15T00:22:41;5.60;;;2.60;;
71814;SDS011;59659;41.520;23.794;2023-04-15T00:23:53;10.23;;;3.33;;
71814;SDS011;59659;41.520;23.794;2023-04-15T00:25:05;13.38;;;4.40;;
71814;SDS011;59659;41.520;23.794;2023-04-15T00:26:16;9.52;;;3.33;;
71814;SDS011;59659;41.520;23.794;2023-04-15T00:27:29;8.52;;;3.75;;
71814;SDS011;59659;41.520;23.794;2023-04-15T00:28:41;7.35;;;2.75;;
71814;SDS011;59659;41.520;23.794;2023-04-15T00:29:52;6.75;;;2.55;;
71814;SDS011;59659;41.520;23.794;2023-04-15T00:31:03;4.60;;;2.00;;
71814;SDS011;59659;41.520;23.794;2023-04-15T00:32:15;3.75;;;1.95;;
71814;SDS011;59659;41.520;23.794;2023-04-15T00:33:26;7.07;;;3.15;;
71814;SDS011;59659;41.520;23.794;2023-04-15T00:34:38;5.50;;;2.28;;
71814;SDS011;59659;41.520;23.794;2023-04-15T00:35:49;5.03;;;3.20;;
71814;SDS011;59659;41.520;23.794;2023-04-15T00:37:02;4.80;;;2.65;;
71814;SDS011;59659;41.520;23.794;2023-04-15T00:38:13;4.78;;;3.03;;
71814;SDS011;59659;41.520;23.794;2023-04-15T00:39:25;7.30;;;2.75;;
71814;SDS011;59659;41.520;23.794;2023-04-15T00:40:36;4.13;;;2.83;;
71814;SDS011;59659;41.520;23.794;2023-04-15T00:41:48;4.72;;;2.67;;
71814;SDS011;59659;41.520;23.794;2023-04-15T00:42:59;3.88;;;2.45;;
71814;SDS011;59659;41.520;23.794;2023-04-15T00:44:11;3.17;;;2.33;;
71814;SDS011;59659;41.520;23.794;2023-04-15T00:45:22;4.60;;;3.13;;
71814;SDS011;59659;41.520;23.794;2023-04-15T00:46:34;5.90;;;2.83;;
71814;SDS011;59659;41.520;23.794;2023-04-15T00:47:46;7.82;;;3.05;;
71814;SDS011;59659;41.520;23.794;2023-04-15T00:48:57;5.05;;;3.28;;
71814;SDS011;59659;41.520;23.794;2023-04-15T00:50:10;5.65;;;2.65;;
71814;SDS011;59659;41.520;23.794;2023-04-15T00:51:22;4.68;;;2.78;;
71814;SDS011;59659;41.520;23.794;2023-04-15T00:52:35;5.22;;;2.83;;
71814;SDS011;59659;41.520;23.794;2023-04-15T00:53:46;7.15;;;2.90;;
71814;SDS011;59659;41.520;23.794;2023-04-15T00:54:58;7.03;;;2.72;;
71814;SDS011;59659;41.520;23.794;2023-04-15T00:56:09;7.80;;;3.60;;
71814;SDS011;59659;41.520;23.794;2023-04-15T00:57:21;5.35;;;3.05;;
71814;SDS011;59659;41.520;23.794;2023-04-15T00:58:33;4.32;;;2.70;;
71814;SDS011;59659;41.520;23.794;2023-04-15T00:59:44;5.50;;;2.55;;
71814;SDS011;59659;41.520;23.794;2023-04-15T01:00:56;5.35;;;3.30;;
71814;SDS011;59659;41.520;23.794;2023-04-15T01:02:09;6.00;;;3.22;;
71814;SDS011;59659;41.520;23.794;2023-04-15T01:03:20;5.22;;;3.00;;
71814;SDS011;59659;41.520;23.794;2023-04-15T01:04:32;6.45;;;2.88;;
71814;SDS011;59659;41.520;23.794;2023-04-15T01:05:44;5.80;;;3.15;;
71814;SDS011;59659;41.520;23.794;2023-04-15T01:06:56;5.20;;;3.05;;
71814;SDS011;59659;41.520;23.794;2023-04-15T01:08:07;5.55;;;2.40;;
71814;SDS011;59659;41.520;23.794;2023-04-15T01:09:19;6.88;;;3.15;;
71814;SDS011;59659;41.520;23.794;2023-04-15T01:10:32;6.78;;;3.17;;
71814;SDS011;59659;41.520;23.794;2023-04-15T01:11:43;8.93;;;3.22;;
71814;SDS011;59659;41.520;23.794;2023-04-15T01:12:55;5.07;;;2.83;;
71814;SDS011;59659;41.520;23.794;2023-04-15T01:14:07;7.50;;;2.65;;
71814;SDS011;59659;41.520;23.794;2023-04-15T01:15:19;7.55;;;2.45;;
71814;SDS011;59659;41.520;23.794;2023-04-15T01:16:30;6.03;;;3.10;;
71814;SDS011;59659;41.520;23.794;2023-04-15T01:17:42;4.47;;;2.92;;
71814;SDS011;59659;41.520;23.794;2023-04-15T01:18:53;6.00;;;3.03;;
71814;SDS011;59659;41.520;23.794;2023-04-15T01:20:05;7.10;;;3.45;;
71814;SDS011;59659;41.520;23.794;2023-04-15T01:21:20;5.95;;;3.65;;
71814;SDS011;59659;41.520;23.794;2023-04-15T01:22:32;6.60;;;3.72;;
71814;SDS011;59659;41.520;23.794;2023-04-15T01:23:45;5.75;;;3.28;;
71814;SDS011;59659;41.520;23.794;2023-04-15T01:25:05;5.45;;;3.75;;
71814;SDS011;59659;41.520;23.794;2023-04-15T01:26:18;8.10;;;4.65;;
71814;SDS011;59659;41.520;23.794;2023-04-15T01:27:30;8.43;;;3.75;;
71814;SDS011;59659;41.520;23.794;2023-04-15T01:28:42;8.20;;;3.97;;
71814;SDS011;59659;41.520;23.794;2023-04-15T01:29:53;8.18;;;4.95;;
71814;SDS011;59659;41.520;23.794;2023-04-15T01:32:17;10.32;;;6.25;;
71814;SDS011;59659;41.520;23.794;2023-04-15T01:33:29;11.45;;;6.50;;
71814;SDS011;59659;41.520;23.794;2023-04-15T01:34:40;13.20;;;5.65;;
71814;SDS011;59659;41.520;23.794;2023-04-15T01:35:52;6.85;;;4.22;;
71814;SDS011;59659;41.520;23.794;2023-04-15T01:37:03;8.50;;;3.97;;
71814;SDS011;59659;41.520;23.794;2023-04-15T01:38:15;7.10;;;3.33;;
71814;SDS011;59659;41.520;23.794;2023-04-15T01:39:27;9.23;;;4.53;;
71814;SDS011;59659;41.520;23.794;2023-04-15T01:40:38;9.43;;;4.50;;
71814;SDS011;59659;41.520;23.794;2023-04-15T01:41:51;6.75;;;4.03;;
71814;SDS011;59659;41.520;23.794;2023-04-15T01:43:02;9.30;;;5.35;;
71814;SDS011;59659;41.520;23.794;2023-04-15T01:44:14;8.00;;;4.65;;
71814;SDS011;59659;41.520;23.794;2023-04-15T01:45:25;8.30;;;4.40;;
71814;SDS011;59659;41.520;23.794;2023-04-15T01:46:37;8.30;;;4.32;;
71814;SDS011;59659;41.520;23.794;2023-04-15T01:47:48;6.60;;;3.90;;
71814;SDS011;59659;41.520;23.794;2023-04-15T01:49:00;5.75;;;3.67;;
71814;SDS011;59659;41.520;23.794;2023-04-15T01:50:12;7.65;;;3.50;;
71814;SDS011;59659;41.520;23.794;2023-04-15T01:51:24;5.00;;;3.40;;
71814;SDS011;59659;41.520;23.794;2023-04-15T01:52:35;10.07;;;4.15;;
71814;SDS011;59659;41.520;23.794;2023-04-15T01:53:47;5.85;;;3.67;;
71814;SDS011;59659;41.520;23.794;2023-04-15T01:54:59;8.07;;;3.92;;
71814;SDS011;59659;41.520;23.794;2023-04-15T01:56:10;6.15;;;3.55;;
71814;SDS011;59659;41.520;23.794;2023-04-15T01:57:22;6.88;;;2.90;;
71814;SDS011;59659;41.520;23.794;2023-04-15T01:58:33;4.07;;;3.00;;
71814;SDS011;59659;41.520;23.794;2023-04-15T01:59:45;4.97;;;2.75;;
71814;SDS011;59659;41.520;23.794;2023-04-15T02:00:57;5.97;;;3.10;;
71814;SDS011;59659;41.520;23.794;2023-04-15T02:02:08;3.97;;;2.30;;
71814;SDS011;59659;41.520;23.794;2023-04-15T02:03:20;6.22;;;3.00;;
71814;SDS011;59659;41.520;23.794;2023-04-15T02:04:32;5.32;;;2.75;;
71814;SDS011;59659;41.520;23.794;2023-04-15T02:05:44;5.05;;;3.42;;
71814;SDS011;59659;41.520;23.794;2023-04-15T02:06:55;3.83;;;2.10;;
71814;SDS011;59659;41.520;23.794;2023-04-15T02:08:07;5.43;;;2.45;;
71814;SDS011;59659;41.520;23.794;2023-04-15T02:09:19;7.32;;;2.90;;
71814;SDS011;59659;41.520;23.794;2023-04-15T02:10:30;4.50;;;2.95;;
71814;SDS011;59659;41.520;23.794;2023-04-15T02:11:42;7.88;;;4.00;;
71814;SDS011;59659;41.520;23.794;2023-04-15T02:12:54;7.03;;;2.95;;
71814;SDS011;59659;41.520;23.794;2023-04-15T02:14:05;6.82;;;3.10;;
71814;SDS011;59659;41.520;23.794;2023-04-15T02:15:17;5.97;;;3.38;;
71814;SDS011;59659;41.520;23.794;2023-04-15T02:16:28;6.75;;;3.65;;
71814;SDS011;59659;41.520;23.794;2023-04-15T02:17:39;4.97;;;2.83;;
71814;SDS011;59659;41.520;23.794;2023-04-15T02:18:52;5.40;;;3.03;;
71814;SDS011;59659;41.520;23.794;2023-04-15T02:20:04;4.38;;;3.50;;
71814;SDS011;59659;41.520;23.794;2023-04-15T02:21:16;5.97;;;3.10;;
71814;SDS011;59659;41.520;23.794;2023-04-15T02:22:29;6.95;;;2.95;;
71814;SDS011;59659;41.520;23.794;2023-04-15T02:23:40;7.20;;;3.30;;
71814;SDS011;59659;41.520;23.794;2023-04-15T02:24:52;6.05;;;3.33;;
71814;SDS011;59659;41.520;23.794;2023-04-15T02:26:03;4.50;;;2.58;;
71814;SDS011;59659;41.520;23.794;2023-04-15T02:27:15;6.50;;;3.33;;
71814;SDS011;59659;41.520;23.794;2023-04-15T02:28:27;6.10;;;3.13;;
71814;SDS011;59659;41.520;23.794;2023-04-15T02:29:39;4.70;;;2.30;;
71814;SDS011;59659;41.520;23.794;2023-04-15T02:30:50;3.80;;;2.28;;
71814;SDS011;59659;41.520;23.794;2023-04-15T02:32:03;6.03;;;2.75;;
71814;SDS011;59659;41.520;23.794;2023-04-15T02:33:15;4.53;;;2.65;;
71814;SDS011;59659;41.520;23.794;2023-04-15T02:34:26;4.40;;;2.97;;
71814;SDS011;59659;41.520;23.794;2023-04-15T02:35:38;4.63;;;2.58;;
71814;SDS011;59659;41.520;23.794;2023-04-15T02:36:52;6.32;;;3.13;;
71814;SDS011;59659;41.520;23.794;2023-04-15T02:38:07;4.25;;;2.35;;
71814;SDS011;59659;41.520;23.794;2023-04-15T02:39:18;4.10;;;2.55;;
71814;SDS011;59659;41.520;23.794;2023-04-15T02:40:30;4.28;;;2.25;;
71814;SDS011;59659;41.520;23.794;2023-04-15T02:41:41;4.43;;;2.50;;
71814;SDS011;59659;41.520;23.794;2023-04-15T02:42:54;5.07;;;2.72;;
71814;SDS011;59659;41.520;23.794;2023-04-15T02:44:05;3.70;;;2.55;;
71814;SDS011;59659;41.520;23.794;2023-04-15T02:45:21;5.10;;;2.33;;
71814;SDS011;59659;41.520;23.794;2023-04-15T02:46:36;4.28;;;2.53;;
71814;SDS011;59659;41.520;23.794;2023-04-15T02:47:47;5.07;;;3.25;;
71814;SDS011;59659;41.520;23.794;2023-04-15T02:48:59;7.65;;;2.63;;
71814;SDS011;59659;41.520;23.794;2023-04-15T02:50:11;3.67;;;2.50;;
71814;SDS011;59659;41.520;23.794;2023-04-15T02:51:23;4.90;;;3.08;;
71814;SDS011;59659;41.520;23.794;2023-04-15T02:52:34;9.23;;;3.53;;
71814;SDS011;59659;41.520;23.794;2023-04-15T02:53:46;5.20;;;3.00;;
71814;SDS011;59659;41.520;23.794;2023-04-15T02:54:58;5.30;;;3.00;;
71814;SDS011;59659;41.520;23.794;2023-04-15T02:56:12;6.82;;;3.60;;
71814;SDS011;59659;41.520;23.794;2023-04-15T02:57:26;10.10;;;3.40;;
71814;SDS011;59659;41.520;23.794;2023-04-15T02:58:38;9.07;;;3.53;;
71814;SDS011;59659;41.520;23.794;2023-04-15T02:59:50;4.45;;;2.67;;
71814;SDS011;59659;41.520;23.794;2023-04-15T03:01:01;7.13;;;3.65;;
71814;SDS011;59659;41.520;23.794;2023-04-15T03:02:13;8.45;;;2.92;;
71814;SDS011;59659;41.520;23.794;2023-04-15T03:03:24;5.82;;;3.58;;
71814;SDS011;59659;41.520;23.794;2023-04-15T03:04:38;5.53;;;3.13;;
71814;SDS011;59659;41.520;23.794;2023-04-15T03:05:50;7.72;;;3.05;;
71814;SDS011;59659;41.520;23.794;2023-04-15T03:07:01;6.40;;;3.20;;
71814;SDS011;59659;41.520;23.794;2023-04-15T03:08:12;7.07;;;3.63;;
71814;SDS011;59659;41.520;23.794;2023-04-15T03:09:25;5.35;;;3.17;;
71814;SDS011;59659;41.520;23.794;2023-04-15T03:10:36;5.57;;;3.10;;
71814;SDS011;59659;41.520;23.794;2023-04-15T03:11:48;8.15;;;2.97;;
71814;SDS011;59659;41.520;23.794;2023-04-15T03:13:00;6.75;;;3.35;;
71814;SDS011;59659;41.520;23.794;2023-04-15T03:14:12;7.05;;;3.60;;
71814;SDS011;59659;41.520;23.794;2023-04-15T03:15:23;4.70;;;2.60;;
71814;SDS011;59659;41.520;23.794;2023-04-15T03:16:35;5.28;;;2.63;;
71814;SDS011;59659;41.520;23.794;2023-04-15T03:17:46;6.85;;;3.00;;
71814;SDS011;59659;41.520;23.794;2023-04-15T03:18:59;5.53;;;2.90;;
71814;SDS011;59659;41.520;23.794;2023-04-15T03:20:11;5.07;;;2.92;;
71814;SDS011;59659;41.520;23.794;2023-04-15T03:21:23;5.40;;;3.42;;
71814;SDS011;59659;41.520;23.794;2023-04-15T03:22:34;6.47;;;3.50;;
71814;SDS011;59659;41.520;23.794;2023-04-15T03:23:47;6.80;;;3.17;;
71814;SDS011;59659;41.520;23.794;2023-04-15T03:25:00;4.38;;;2.60;;
71814;SDS011;59659;41.520;23.794;2023-04-15T03:26:22;4.45;;;2.50;;
71814;SDS011;59659;41.520;23.794;2023-04-15T03:27:33;3.95;;;2.50;;
71814;SDS011;59659;41.520;23.794;2023-04-15T03:28:45;4.75;;;3.05;;
71814;SDS011;59659;41.520;23.794;2023-04-15T03:29:56;4.45;;;2.50;;
71814;SDS011;59659;41.520;23.794;2023-04-15T03:31:08;5.65;;;2.88;;
71814;SDS011;59659;41.520;23.794;2023-04-15T03:32:19;5.32;;;3.28;;
71814;SDS011;59659;41.520;23.794;2023-04-15T03:33:31;6.13;;;3.20;;
71814;SDS011;59659;41.520;23.794;2023-04-15T03:34:43;5.75;;;3.00;;
71814;SDS011;59659;41.520;23.794;2023-04-15T03:35:54;9.45;;;4.35;;
71814;SDS011;59659;41.520;23.794;2023-04-15T03:37:06;8.20;;;3.08;;
71814;SDS011;59659;41.520;23.794;2023-04-15T03:38:17;4.43;;;2.70;;
71814;SDS011;59659;41.520;23.794;2023-04-15T03:39:29;5.28;;;2.83;;
71814;SDS011;59659;41.520;23.794;2023-04-15T03:40:41;6.45;;;3.33;;
71814;SDS011;59659;41.520;23.794;2023-04-15T03:41:52;5.55;;;2.97;;
71814;SDS011;59659;41.520;23.794;2023-04-15T03:43:04;4.85;;;3.20;;
71814;SDS011;59659;41.520;23.794;2023-04-15T03:44:15;4.22;;;2.70;;
71814;SDS011;59659;41.520;23.794;2023-04-15T03:45:27;4.88;;;2.80;;
71814;SDS011;59659;41.520;23.794;2023-04-15T03:46:38;5.35;;;3.28;;
71814;SDS011;59659;41.520;23.794;2023-04-15T03:47:50;8.60;;;4.40;;
71814;SDS011;59659;41.520;23.794;2023-04-15T03:49:01;9.85;;;5.07;;
71814;SDS011;59659;41.520;23.794;2023-04-15T03:50:13;8.38;;;4.63;;
71814;SDS011;59659;41.520;23.794;2023-04-15T03:51:25;7.07;;;4.03;;
71814;SDS011;59659;41.520;23.794;2023-04-15T03:52:36;7.43;;;3.60;;
71814;SDS011;59659;41.520;23.794;2023-04-15T03:53:48;5.47;;;3.42;;
71814;SDS011;59659;41.520;23.794;2023-04-15T03:54:59;5.85;;;2.83;;
71814;SDS011;59659;41.520;23.794;2023-04-15T03:56:11;10.30;;;5.78;;
71814;SDS011;59659;41.520;23.794;2023-04-15T03:57:23;13.77;;;8.10;;
71814;SDS011;59659;41.520;23.794;2023-04-15T03:58:34;11.57;;;5.05;;
71814;SDS011;59659;41.520;23.794;2023-04-15T03:59:46;8.75;;;3.90;;
71814;SDS011;59659;41.520;23.794;2023-04-15T04:00:57;6.75;;;3.75;;
71814;SDS011;59659;41.520;23.794;2023-04-15T04:02:09;5.75;;;3.22;;
71814;SDS011;59659;41.520;23.794;2023-04-15T04:03:20;8.48;;;3.83;;
71814;SDS011;59659;41.520;23.794;2023-04-15T04:04:32;7.88;;;4.10;;
71814;SDS011;59659;41.520;23.794;2023-04-15T04:05:44;8.57;;;4.47;;
71814;SDS011;59659;41.520;23.794;2023-04-15T04:06:56;15.27;;;5.50;;
71814;SDS011;59659;41.520;23.794;2023-04-15T04:08:07;7.10;;;4.38;;
71814;SDS011;59659;41.520;23.794;2023-04-15T04:09:18;7.82;;;3.78;;
71814;SDS011;59659;41.520;23.794;2023-04-15T04:10:30;6.07;;;3.75;;
71814;SDS011;59659;41.520;23.794;2023-04-15T04:11:42;4.60;;;3.65;;
71814;SDS011;59659;41.520;23.794;2023-04-15T04:12:53;5.88;;;3.72;;
71814;SDS011;59659;41.520;23.794;2023-04-15T04:14:05;5.57;;;3.30;;
71814;SDS011;59659;41.520;23.794;2023-04-15T04:15:16;7.80;;;4.53;;
71814;SDS011;59659;41.520;23.794;2023-04-15T04:16:28;11.50;;;6.13;;
71814;SDS011;59659;41.520;23.794;2023-04-15T04:17:39;13.15;;;6.03;;
71814;SDS011;59659;41.520;23.794;2023-04-15T04:18:51;7.47;;;4.97;;
71814;SDS011;59659;41.520;23.794;2023-04-15T04:20:03;8.50;;;4.55;;
71814;SDS011;59659;41.520;23.794;2023-04-15T04:21:15;11.00;;;4.93;;
71814;SDS011;59659;41.520;23.794;2023-04-15T04:22:27;10.38;;;4.30;;
71814;SDS011;59659;41.520;23.794;2023-04-15T04:23:39;9.32;;;4.32;;
71814;SDS011;59659;41.520;23.794;2023-04-15T04:24:50;8.20;;;4.10;;
71814;SDS011;59659;41.520;23.794;2023-04-15T04:26:02;7.63;;;4.57;;
71814;SDS011;59659;41.520;23.794;2023-04-15T04:27:13;9.23;;;4.88;;
71814;SDS011;59659;41.520;23.794;2023-04-15T04:28:24;12.93;;;5.15;;
71814;SDS011;59659;41.520;23.794;2023-04-15T04:29:36;12.43;;;5.72;;
71814;SDS011;59659;41.520;23.794;2023-04-15T04:30:47;8.25;;;5.53;;
71814;SDS011;59659;41.520;23.794;2023-04-15T04:31:59;7.28;;;4.47;;
71814;SDS011;59659;41.520;23.794;2023-04-15T04:33:10;7.35;;;4.15;;
71814;SDS011;59659;41.520;23.794;2023-04-15T04:34:22;8.75;;;5.03;;
71814;SDS011;59659;41.520;23.794;2023-04-15T04:35:33;12.30;;;5.18;;
71814;SDS011;59659;41.520;23.794;2023-04-15T04:36:47;5.82;;;3.92;;
71814;SDS011;59659;41.520;23.794;2023-04-15T04:37:59;8.50;;;4.40;;
71814;SDS011;59659;41.520;23.794;2023-04-15T04:39:11;6.18;;;3.55;;
71814;SDS011;59659;41.520;23.794;2023-04-15T04:40:22;5.93;;;3.63;;
71814;SDS011;59659;41.520;23.794;2023-04-15T04:41:34;7.00;;;4.13;;
71814;SDS011;59659;41.520;23.794;2023-04-15T04:42:45;6.95;;;3.47;;
71814;SDS011;59659;41.520;23.794;2023-04-15T04:43:57;5.03;;;3.20;;
71814;SDS011;59659;41.520;23.794;2023-04-15T04:45:09;5.75;;;4.35;;
71814;SDS011;59659;41.520;23.794;2023-04-15T04:46:20;7.07;;;4.10;;
71814;SDS011;59659;41.520;23.794;2023-04-15T04:47:32;6.97;;;3.90;;
71814;SDS011;59659;41.520;23.794;2023-04-15T04:48:43;7.43;;;3.80;;
71814;SDS011;59659;41.520;23.794;2023-04-15T04:49:57;9.45;;;5.22;;
71814;SDS011;59659;41.520;23.794;2023-04-15T04:51:08;60.58;;;23.00;;
71814;SDS011;59659;41.520;23.794;2023-04-15T04:52:20;107.50;;;36.38;;
71814;SDS011;59659;41.520;23.794;2023-04-15T04:53:31;30.60;;;12.88;;
71814;SDS011;59659;41.520;23.794;2023-04-15T04:54:43;19.35;;;9.60;;
71814;SDS011;59659;41.520;23.794;2023-04-15T04:55:54;16.35;;;6.65;;
71814;SDS011;59659;41.520;23.794;2023-04-15T04:57:06;9.32;;;4.60;;
71814;SDS011;59659;41.520;23.794;2023-04-15T04:58:18;6.03;;;4.28;;
71814;SDS011;59659;41.520;23.794;2023-04-15T04:59:29;5.88;;;4.13;;
71814;SDS011;59659;41.520;23.794;2023-04-15T05:00:41;7.80;;;4.32;;
71814;SDS011;59659;41.520;23.794;2023-04-15T05:01:53;8.02;;;5.22;;
71814;SDS011;59659;41.520;23.794;2023-04-15T05:03:05;13.70;;;5.90;;
71814;SDS011;59659;41.520;23.794;2023-04-15T05:04:16;10.20;;;5.82;;
71814;SDS011;59659;41.520;23.794;2023-04-15T05:05:28;13.25;;;7.22;;
71814;SDS011;59659;41.520;23.794;2023-04-15T05:06:39;16.77;;;9.75;;
71814;SDS011;59659;41.520;23.794;2023-04-15T05:07:51;14.10;;;7.47;;
71814;SDS011;59659;41.520;23.794;2023-04-15T05:09:03;12.98;;;7.18;;
71814;SDS011;59659;41.520;23.794;2023-04-15T05:10:15;13.52;;;7.35;;
71814;SDS011;59659;41.520;23.794;2023-04-15T05:11:28;14.82;;;6.68;;
71814;SDS011;59659;41.520;23.794;2023-04-15T05:12:39;15.32;;;8.10;;
71814;SDS011;59659;41.520;23.794;2023-04-15T05:13:51;9.68;;;5.53;;
71814;SDS011;59659;41.520;23.794;2023-04-15T05:15:03;8.10;;;4.90;;
71814;SDS011;59659;41.520;23.794;2023-04-15T05:16:15;10.13;;;4.65;;
71814;SDS011;59659;41.520;23.794;2023-04-15T05:17:27;9.30;;;5.40;;
71814;SDS011;59659;41.520;23.794;2023-04-15T05:18:39;9.07;;;4.55;;
71814;SDS011;59659;41.520;23.794;2023-04-15T05:19:50;9.85;;;5.47;;
71814;SDS011;59659;41.520;23.794;2023-04-15T05:21:02;8.65;;;4.78;;
71814;SDS011;59659;41.520;23.794;2023-04-15T05:22:13;9.30;;;5.40;;
71814;SDS011;59659;41.520;23.794;2023-04-15T05:23:25;10.80;;;5.00;;
71814;SDS011;59659;41.520;23.794;2023-04-15T05:24:36;9.25;;;4.97;;
71814;SDS011;59659;41.520;23.794;2023-04-15T05:25:47;11.68;;;5.00;;
71814;SDS011;59659;41.520;23.794;2023-04-15T05:26:59;9.27;;;5.88;;
71814;SDS011;59659;41.520;23.794;2023-04-15T05:28:12;6.90;;;4.10;;
71814;SDS011;59659;41.520;23.794;2023-04-15T05:29:23;11.98;;;5.90;;
71814;SDS011;59659;41.520;23.794;2023-04-15T05:30:35;14.77;;;7.32;;
71814;SDS011;59659;41.520;23.794;2023-04-15T05:31:46;10.77;;;6.28;;
71814;SDS011;59659;41.520;23.794;2023-04-15T05:32:58;7.00;;;4.38;;
71814;SDS011;59659;41.520;23.794;2023-04-15T05:34:09;9.70;;;5.40;;
71814;SDS011;59659;41.520;23.794;2023-04-15T05:35:22;9.50;;;4.97;;
71814;SDS011;59659;41.520;23.794;2023-04-15T05:36:33;6.60;;;3.90;;
71814;SDS011;59659;41.520;23.794;2023-04-15T05:37:45;8.32;;;4.22;;
71814;SDS011;59659;41.520;23.794;2023-04-15T05:38:57;10.25;;;6.03;;
71814;SDS011;59659;41.520;23.794;2023-04-15T05:40:09;8.88;;;4.95;;
71814;SDS011;59659;41.520;23.794;2023-04-15T05:41:20;8.82;;;4.72;;
71814;SDS011;59659;41.520;23.794;2023-04-15T05:42:32;8.02;;;5.00;;
71814;SDS011;59659;41.520;23.794;2023-04-15T05:43:44;7.65;;;4.63;;
71814;SDS011;59659;41.520;23.794;2023-04-15T05:44:55;7.43;;;4.95;;
71814;SDS011;59659;41.520;23.794;2023-04-15T05:46:07;8.25;;;4.35;;
71814;SDS011;59659;41.520;23.794;2023-04-15T05:47:18;7.35;;;4.78;;
71814;SDS011;59659;41.520;23.794;2023-04-15T05:48:30;10.55;;;5.90;;
71814;SDS011;59659;41.520;23.794;2023-04-15T05:49:42;11.05;;;5.53;;
71814;SDS011;59659;41.520;23.794;2023-04-15T05:50:53;8.13;;;4.55;;
71814;SDS011;59659;41.520;23.794;2023-04-15T05:52:04;7.90;;;4.72;;
71814;SDS011;59659;41.520;23.794;2023-04-15T05:53:16;10.73;;;4.65;;
71814;SDS011;59659;41.520;23.794;2023-04-15T05:54:28;7.43;;;4.65;;
71814;SDS011;59659;41.520;23.794;2023-04-15T05:55:39;7.57;;;3.60;;
71814;SDS011;59659;41.520;23.794;2023-04-15T05:56:51;10.88;;;4.57;;
71814;SDS011;59659;41.520;23.794;2023-04-15T05:58:02;5.45;;;3.65;;
71814;SDS011;59659;41.520;23.794;2023-04-15T05:59:14;8.25;;;3.60;;
71814;SDS011;59659;41.520;23.794;2023-04-15T06:00:25;10.02;;;4.18;;
71814;SDS011;59659;41.520;23.794;2023-04-15T06:01:37;13.30;;;5.07;;
71814;SDS011;59659;41.520;23.794;2023-04-15T06:02:49;10.75;;;6.10;;
71814;SDS011;59659;41.520;23.794;2023-04-15T06:04:00;6.32;;;3.72;;
71814;SDS011;59659;41.520;23.794;2023-04-15T06:05:12;6.68;;;3.85;;
71814;SDS011;59659;41.520;23.794;2023-04-15T06:06:23;9.95;;;4.40;;
71814;SDS011;59659;41.520;23.794;2023-04-15T06:07:35;13.40;;;6.03;;
71814;SDS011;59659;41.520;23.794;2023-04-15T06:08:47;9.32;;;4.85;;
71814;SDS011;59659;41.520;23.794;2023-04-15T06:09:58;11.02;;;5.30;;
71814;SDS011;59659;41.520;23.794;2023-04-15T06:11:10;10.30;;;6.03;;
71814;SDS011;59659;41.520;23.794;2023-04-15T06:12:21;11.57;;;6.50;;
71814;SDS011;59659;41.520;23.794;2023-04-15T06:13:33;30.83;;;12.32;;
71814;SDS011;59659;41.520;23.794;2023-04-15T06:14:45;26.52;;;11.20;;
71814;SDS011;59659;41.520;23.794;2023-04-15T06:15:56;14.40;;;6.10;;
71814;SDS011;59659;41.520;23.794;2023-04-15T06:17:08;19.42;;;7.35;;
71814;SDS011;59659;41.520;23.794;2023-04-15T06:18:20;11.35;;;4.35;;
71814;SDS011;59659;41.520;23.794;2023-04-15T06:19:32;13.27;;;6.72;;
71814;SDS011;59659;41.520;23.794;2023-04-15T06:20:43;13.50;;;4.72;;
71814;SDS011;59659;41.520;23.794;2023-04-15T06:21:55;11.18;;;4.47;;
71814;SDS011;59659;41.520;23.794;2023-04-15T06:23:06;9.27;;;4.45;;
71814;SDS011;59659;41.520;23.794;2023-04-15T06:24:17;8.73;;;4.35;;
71814;SDS011;59659;41.520;23.794;2023-04-15T06:25:29;7.00;;;3.30;;
71814;SDS011;59659;41.520;23.794;2023-04-15T06:26:41;5.38;;;3.10;;
71814;SDS011;59659;41.520;23.794;2023-04-15T06:27:52;8.98;;;3.85;;
71814;SDS011;59659;41.520;23.794;2023-04-15T06:29:04;8.18;;;4.53;;
71814;SDS011;59659;41.520;23.794;2023-04-15T06:30:15;9.80;;;4.60;;
71814;SDS011;59659;41.520;23.794;2023-04-15T06:31:27;6.75;;;4.05;;
71814;SDS011;59659;41.520;23.794;2023-04-15T06:32:38;8.50;;;3.25;;
71814;SDS011;59659;41.520;23.794;2023-04-15T06:33:50;16.05;;;4.30;;
71814;SDS011;59659;41.520;23.794;2023-04-15T06:35:02;5.53;;;3.33;;
71814;SDS011;59659;41.520;23.794;2023-04-15T06:36:14;9.77;;;3.47;;
71814;SDS011;59659;41.520;23.794;2023-04-15T06:37:25;7.13;;;3.83;;
71814;SDS011;59659;41.520;23.794;2023-04-15T06:38:37;7.65;;;3.95;;
71814;SDS011;59659;41.520;23.794;2023-04-15T06:39:48;8.63;;;3.13;;
71814;SDS011;59659;41.520;23.794;2023-04-15T06:41:00;4.40;;;2.75;;
71814;SDS011;59659;41.520;23.794;2023-04-15T06:42:11;7.68;;;3.30;;
71814;SDS011;59659;41.520;23.794;2023-04-15T06:43:23;13.20;;;3.08;;
71814;SDS011;59659;41.520;23.794;2023-04-15T06:44:35;4.20;;;2.47;;
71814;SDS011;59659;41.520;23.794;2023-04-15T06:45:47;4.20;;;2.50;;
71814;SDS011;59659;41.520;23.794;2023-04-15T06:46:58;8.75;;;3.17;;
71814;SDS011;59659;41.520;23.794;2023-04-15T06:48:10;10.27;;;4.72;;
71814;SDS011;59659;41.520;23.794;2023-04-15T06:49:22;3.92;;;2.28;;
71814;SDS011;59659;41.520;23.794;2023-04-15T06:50:33;3.85;;;2.55;;
71814;SDS011;59659;41.520;23.794;2023-04-15T06:51:45;4.50;;;2.50;;
71814;SDS011;59659;41.520;23.794;2023-04-15T06:52:57;8.18;;;3.35;;
71814;SDS011;59659;41.520;23.794;2023-04-15T06:54:09;5.95;;;3.05;;
71814;SDS011;59659;41.520;23.794;2023-04-15T06:55:21;3.33;;;2.50;;
71814;SDS011;59659;41.520;23.794;2023-04-15T06:56:32;7.33;;;4.00;;
71814;SDS011;59659;41.520;23.794;2023-04-15T06:57:44;9.23;;;4.15;;
71814;SDS011;59659;41.520;23.794;2023-04-15T06:58:55;4.50;;;2.40;;
71814;SDS011;59659;41.520;23.794;2023-04-15T07:00:07;8.03;;;3.03;;
71814;SDS011;59659;41.520;23.794;2023-04-15T07:01:21;6.67;;;3.30;;
71814;SDS011;59659;41.520;23.794;2023-04-15T07:02:33;8.50;;;3.57;;
71814;SDS011;59659;41.520;23.794;2023-04-15T07:03:45;6.07;;;3.47;;
71814;SDS011;59659;41.520;23.794;2023-04-15T07:04:57;6.77;;;2.60;;
71814;SDS011;59659;41.520;23.794;2023-04-15T07:06:08;8.50;;;3.20;;